createdAt,value
2023-03-06T00:01:10.458Z,50.40
2023-03-06T00:03:38.627Z,50.58
2023-03-06T00:06:07.609Z,50.66
2023-03-06T00:08:35.445Z,50.69
2023-03-06T00:11:03.269Z,50.85
2023-03-06T00:13:32.202Z,50.87
2023-03-06T00:16:01.293Z,51.01
2023-03-06T00:18:29.039Z,51.07
2023-03-06T00:20:56.791Z,51.44
2023-03-06T00:23:24.732Z,51.63
2023-03-06T00:25:52.442Z,51.87
2023-03-06T00:28:20.267Z,52.06
2023-03-06T00:30:48.475Z,52.40
2023-03-06T00:33:16.762Z,52.46
2023-03-06T00:35:44.695Z,52.69
2023-03-06T00:38:13.205Z,52.79
2023-03-06T00:40:41.679Z,52.67
2023-03-06T00:43:10.053Z,53.17
2023-03-06T00:45:39.543Z,53.30
2023-03-06T00:48:07.407Z,52.53
2023-03-06T00:50:35.591Z,52.50
2023-03-06T00:53:03.677Z,53.00
2023-03-06T00:55:33.500Z,52.52
2023-03-06T00:58:01.595Z,52.94
2023-03-06T01:00:29.842Z,53.13
2023-03-06T01:02:57.719Z,53.75
2023-03-06T01:05:25.882Z,54.30
2023-03-06T01:07:53.880Z,53.64
2023-03-06T01:10:21.834Z,54.93
2023-03-06T01:12:49.995Z,55.77
2023-03-06T01:15:18.044Z,54.37
2023-03-06T01:17:47.618Z,54.45
2023-03-06T01:20:18.594Z,55.33
2023-03-06T01:22:46.392Z,54.39
2023-03-06T01:25:15.398Z,55.17
2023-03-06T01:27:43.249Z,54.47
2023-03-06T01:30:12.779Z,54.61
2023-03-06T01:32:40.558Z,55.60
2023-03-06T01:35:13.033Z,56.55
2023-03-06T01:37:41.992Z,56.93
2023-03-06T01:40:12.526Z,57.97
2023-03-06T01:42:42.482Z,56.69
2023-03-06T01:45:13.493Z,55.66
2023-03-06T01:47:41.424Z,56.18
2023-03-06T01:50:11.845Z,56.68
2023-03-06T01:52:51.010Z,57.03
2023-03-06T01:55:27.869Z,55.67
2023-03-06T01:58:00.817Z,55.12
2023-03-06T02:00:31.156Z,54.99
2023-03-06T02:03:09.529Z,55.49
2023-03-06T02:05:41.026Z,55.82
2023-03-06T02:08:13.534Z,55.94
2023-03-06T02:11:04.157Z,56.07
2023-03-06T02:13:32.605Z,56.13
2023-03-06T02:16:01.597Z,55.99
2023-03-06T02:18:33.788Z,55.88
2023-03-06T02:21:07.248Z,56.10
2023-03-06T02:24:17.687Z,55.97
2023-03-06T02:26:47.648Z,56.15
2023-03-06T02:29:25.285Z,56.33
2023-03-06T02:31:53.049Z,56.27
2023-03-06T02:34:20.684Z,56.32
2023-03-06T02:36:53.910Z,56.12
2023-03-06T02:39:26.664Z,59.76
2023-03-06T02:41:54.796Z,73.42
2023-03-06T02:44:25.970Z,73.20
2023-03-06T02:46:53.707Z,60.69
2023-03-06T02:49:21.700Z,52.02
2023-03-06T02:51:51.080Z,48.72
2023-03-06T02:54:20.526Z,43.29
2023-03-06T02:56:48.421Z,40.95
2023-03-06T02:59:16.477Z,36.28
2023-03-06T03:01:44.368Z,34.25
2023-03-06T03:04:12.311Z,35.64
2023-03-06T03:06:40.027Z,38.17
2023-03-06T03:09:07.792Z,40.31
2023-03-06T03:11:36.233Z,41.86
2023-03-06T03:14:04.198Z,43.30
2023-03-06T03:16:32.248Z,43.01
2023-03-06T03:19:00.296Z,43.21
2023-03-06T03:21:28.191Z,44.00
2023-03-06T03:23:55.853Z,44.95
2023-03-06T03:26:24.003Z,45.88
2023-03-06T03:28:51.654Z,48.32
2023-03-06T03:31:19.459Z,50.17
2023-03-06T03:33:47.334Z,51.03
2023-03-06T03:36:15.052Z,50.07
2023-03-06T03:38:42.980Z,49.47
2023-03-06T03:41:10.728Z,49.98
2023-03-06T03:43:38.454Z,52.33
2023-03-06T03:46:06.532Z,53.89
2023-03-06T03:48:34.758Z,54.53
2023-03-06T03:51:09.259Z,54.30
2023-03-06T03:53:37.957Z,53.71
2023-03-06T03:56:06.371Z,53.40
2023-03-06T03:58:34.913Z,53.62
2023-03-06T04:01:02.938Z,54.27
2023-03-06T04:03:30.783Z,53.77
2023-03-06T04:05:59.423Z,54.01
2023-03-06T04:08:28.456Z,54.60
2023-03-06T04:10:56.678Z,56.70
2023-03-06T04:13:25.198Z,56.66
2023-03-06T04:15:55.496Z,57.38
2023-03-06T04:18:23.778Z,62.71
2023-03-06T04:20:52.188Z,61.20
2023-03-06T04:23:20.860Z,57.09
2023-03-06T04:25:48.552Z,49.11
2023-03-06T04:28:16.598Z,46.59
2023-03-06T04:30:44.620Z,45.53
2023-03-06T04:33:12.758Z,44.00
2023-03-06T04:35:40.595Z,41.29
2023-03-06T04:38:08.506Z,41.75
2023-03-06T04:40:36.797Z,39.40
2023-03-06T04:43:05.707Z,39.67
2023-03-06T04:45:34.908Z,38.64
2023-03-06T04:48:03.525Z,38.32
2023-03-06T04:50:32.813Z,38.18
2023-03-06T04:53:02.419Z,37.25
2023-03-06T04:55:31.469Z,36.93
2023-03-06T04:57:59.215Z,36.96
2023-03-06T05:00:32.101Z,37.47
2023-03-06T05:03:01.783Z,37.19
2023-03-06T05:05:31.836Z,36.74
2023-03-06T05:07:59.630Z,36.29
2023-03-06T05:10:27.770Z,36.29
2023-03-06T05:12:55.661Z,35.51
2023-03-06T05:15:24.188Z,36.32
2023-03-06T05:17:52.313Z,35.78
2023-03-06T05:20:20.223Z,35.15
2023-03-06T05:22:47.980Z,34.69
2023-03-06T05:25:15.932Z,34.67
2023-03-06T05:27:44.141Z,30.97
2023-03-06T05:30:15.072Z,31.88
2023-03-06T05:32:43.125Z,33.49
2023-03-06T05:35:19.491Z,35.28
2023-03-06T05:37:48.302Z,37.55
2023-03-06T05:40:18.351Z,41.23
2023-03-06T05:42:46.100Z,41.11
2023-03-06T05:45:13.866Z,42.67
2023-03-06T05:47:43.815Z,42.50
2023-03-06T05:50:14.450Z,44.64
2023-03-06T05:52:42.651Z,44.33
2023-03-06T05:55:12.974Z,49.11
2023-03-06T05:57:42.221Z,51.44
2023-03-06T06:00:14.870Z,53.84
2023-03-06T06:02:44.033Z,56.27
2023-03-06T06:05:13.617Z,55.30
2023-03-06T06:07:42.597Z,64.91
2023-03-06T06:10:12.999Z,59.44
2023-03-06T06:12:42.905Z,52.28
2023-03-06T06:15:10.885Z,46.81
2023-03-06T06:17:38.607Z,46.26
2023-03-06T06:20:08.229Z,44.20
2023-03-06T06:22:38.777Z,43.32
2023-03-06T06:25:08.446Z,41.77
2023-03-06T06:27:36.396Z,40.66
2023-03-06T06:30:06.862Z,39.25
2023-03-06T06:32:36.326Z,38.84
2023-03-06T06:35:05.274Z,39.93
2023-03-06T06:37:33.290Z,39.88
2023-03-06T06:40:01.176Z,40.85
2023-03-06T06:42:39.531Z,39.57
2023-03-06T06:45:10.745Z,39.10
2023-03-06T06:47:43.522Z,39.13
2023-03-06T06:50:14.412Z,38.92
2023-03-06T06:52:42.377Z,39.29
2023-03-06T06:55:11.714Z,39.50
2023-03-06T06:57:42.019Z,38.88
2023-03-06T07:00:14.299Z,37.78
2023-03-06T07:02:41.997Z,37.32
2023-03-06T07:05:10.571Z,36.66
2023-03-06T07:07:38.692Z,36.36
2023-03-06T07:10:14.614Z,35.90
2023-03-06T07:12:43.747Z,35.23
2023-03-06T07:15:16.478Z,35.03
2023-03-06T07:17:45.085Z,34.91
2023-03-06T07:20:13.706Z,34.82
2023-03-06T07:22:50.997Z,33.53
2023-03-06T07:25:21.332Z,30.92
2023-03-06T07:27:55.556Z,33.23
2023-03-06T07:30:24.164Z,34.72
2023-03-06T07:32:57.632Z,36.75
2023-03-06T07:35:26.726Z,39.64
2023-03-06T07:37:55.662Z,41.56
2023-03-06T07:40:24.479Z,43.90
2023-03-06T07:42:57.735Z,44.87
2023-03-06T07:45:32.625Z,46.29
2023-03-06T07:48:00.929Z,46.00
2023-03-06T07:50:31.023Z,49.86
2023-03-06T07:52:59.768Z,52.99
2023-03-06T07:55:28.848Z,51.82
2023-03-06T07:57:56.761Z,50.24
2023-03-06T08:00:25.477Z,51.66
2023-03-06T08:02:54.453Z,54.24
2023-03-06T08:05:22.196Z,54.40
2023-03-06T08:07:52.567Z,53.49
2023-03-06T08:10:20.518Z,52.77
2023-03-06T08:12:48.913Z,55.30
2023-03-06T08:15:18.138Z,55.04
2023-03-06T08:17:46.144Z,54.23
2023-03-06T08:20:14.945Z,55.23
2023-03-06T08:22:43.368Z,55.01
2023-03-06T08:25:17.291Z,54.73
2023-03-06T08:27:47.126Z,53.27
2023-03-06T08:30:15.221Z,54.55
2023-03-06T08:32:42.943Z,54.69
2023-03-06T08:35:11.401Z,54.84
2023-03-06T08:37:41.321Z,54.75
2023-03-06T08:40:11.776Z,55.71
2023-03-06T08:42:39.812Z,56.22
2023-03-06T08:45:09.557Z,55.61
2023-03-06T08:47:37.685Z,55.83
2023-03-06T08:50:06.375Z,55.75
2023-03-06T08:52:34.256Z,56.25
2023-03-06T08:55:04.064Z,55.86
2023-03-06T08:57:32.268Z,55.74
2023-03-06T09:00:09.001Z,55.73
2023-03-06T09:02:37.405Z,55.82
2023-03-06T09:05:08.197Z,54.97
2023-03-06T09:07:36.235Z,55.03
2023-03-06T09:10:04.441Z,54.99
2023-03-06T09:12:40.435Z,55.36
2023-03-06T09:15:16.878Z,54.53
2023-03-06T09:17:45.165Z,54.42
2023-03-06T09:20:16.645Z,54.51
2023-03-06T09:22:45.757Z,54.38
2023-03-06T09:25:17.716Z,53.67
2023-03-06T09:27:45.872Z,54.21
2023-03-06T09:30:14.994Z,54.10
2023-03-06T09:32:42.985Z,53.95
2023-03-06T09:35:11.742Z,53.73
2023-03-06T09:37:39.805Z,53.54
2023-03-06T09:40:14.611Z,53.70
2023-03-06T09:42:42.381Z,52.63
2023-03-06T09:45:14.269Z,53.14
2023-03-06T09:48:00.947Z,52.49
2023-03-06T09:50:45.019Z,52.09
2023-03-06T09:54:14.084Z,51.70
2023-03-06T09:56:51.099Z,52.65
2023-03-06T09:59:26.161Z,52.25
2023-03-06T10:02:52.627Z,52.03
2023-03-06T10:05:27.590Z,51.07
2023-03-06T10:08:12.269Z,50.66
2023-03-06T10:10:40.141Z,50.72
2023-03-06T10:13:29.021Z,49.91
2023-03-06T10:16:14.662Z,50.34
2023-03-06T10:18:42.795Z,50.16
2023-03-06T10:21:30.397Z,49.32
2023-03-06T10:24:59.502Z,49.64
2023-03-06T10:27:48.641Z,49.56
2023-03-06T10:31:22.690Z,50.24
2023-03-06T10:34:17.586Z,49.74
2023-03-06T10:36:47.635Z,48.78
2023-03-06T10:39:20.469Z,49.14
2023-03-06T10:41:50.035Z,49.02
2023-03-06T10:44:23.617Z,48.13
2023-03-06T10:46:54.790Z,47.73
2023-03-06T10:49:26.418Z,47.25
2023-03-06T10:52:05.872Z,46.10
2023-03-06T10:54:40.054Z,47.18
2023-03-06T10:57:28.598Z,46.98
2023-03-06T11:00:22.802Z,46.84
2023-03-06T11:03:16.484Z,46.24
2023-03-06T11:06:02.411Z,46.15
2023-03-06T11:08:32.646Z,45.46
2023-03-06T11:11:20.260Z,45.53
2023-03-06T11:13:58.965Z,45.20
2023-03-06T11:16:32.848Z,43.19
2023-03-06T11:19:28.141Z,44.40
2023-03-06T11:22:19.467Z,44.43
2023-03-06T11:24:54.933Z,44.31
2023-03-06T11:27:34.989Z,44.91
2023-03-06T11:30:16.442Z,44.40
2023-03-06T11:32:54.116Z,43.72
2023-03-06T11:35:35.887Z,44.58
2023-03-06T11:38:25.776Z,43.86
2023-03-06T11:40:59.676Z,43.16
2023-03-06T11:44:01.017Z,42.78
2023-03-06T11:46:38.616Z,41.80
2023-03-06T11:49:40.765Z,41.36
2023-03-06T11:52:25.508Z,41.91
2023-03-06T11:54:57.367Z,41.71
2023-03-06T11:57:40.989Z,42.45
2023-03-06T12:00:37.731Z,41.77
2023-03-06T12:04:02.993Z,40.37
2023-03-06T12:07:11.749Z,41.09
2023-03-06T12:10:18.226Z,40.89
2023-03-06T12:13:10.945Z,40.77
2023-03-06T12:15:59.770Z,39.57
2023-03-06T12:18:52.523Z,39.52
2023-03-06T12:21:35.713Z,38.53
2023-03-06T12:24:34.866Z,39.85
2023-03-06T12:27:13.478Z,39.00
2023-03-06T12:29:58.316Z,38.87
2023-03-06T12:32:32.665Z,39.45
2023-03-06T12:35:19.765Z,38.50
2023-03-06T12:38:22.241Z,38.54
2023-03-06T12:41:21.176Z,38.57
2023-03-06T12:44:47.066Z,37.34
2023-03-06T12:47:23.250Z,36.56
2023-03-06T12:50:17.345Z,36.51
2023-03-06T12:52:49.146Z,37.25
2023-03-06T12:55:24.300Z,36.47
2023-03-06T12:57:54.045Z,35.79
2023-03-06T13:01:04.532Z,36.41
2023-03-06T13:04:21.362Z,34.00
2023-03-06T13:07:19.313Z,36.95
2023-03-06T13:10:05.923Z,35.37
2023-03-06T13:12:56.870Z,35.40
2023-03-06T13:15:47.790Z,35.97
2023-03-06T13:18:24.485Z,37.08
2023-03-06T13:20:57.707Z,37.42
2023-03-06T13:23:37.480Z,37.44
2023-03-06T13:26:31.551Z,37.64
2023-03-06T13:28:59.315Z,37.80
2023-03-06T13:31:54.171Z,37.39
2023-03-06T13:34:41.892Z,36.09
2023-03-06T13:37:19.667Z,36.36
2023-03-06T13:39:59.419Z,35.29
2023-03-06T13:42:57.147Z,34.77
2023-03-06T13:45:34.598Z,34.35
2023-03-06T13:50:55.550Z,37.97
2023-03-06T13:54:23.890Z,38.29
2023-03-06T13:57:21.559Z,38.31
2023-03-06T14:00:11.076Z,38.93
2023-03-06T14:03:15.130Z,39.18
2023-03-06T14:05:48.143Z,37.35
2023-03-06T14:08:24.098Z,36.52
2023-03-06T14:11:03.517Z,36.79
2023-03-06T14:13:47.817Z,37.70
2023-03-06T14:16:29.168Z,37.77
2023-03-06T14:19:02.054Z,39.31
2023-03-06T14:21:47.489Z,39.91
2023-03-06T14:24:21.462Z,39.57
2023-03-06T14:26:52.228Z,39.77
2023-03-06T14:29:27.092Z,40.46
2023-03-06T14:32:00.841Z,40.31
2023-03-06T14:34:41.091Z,40.29
2023-03-06T14:37:21.815Z,40.37
2023-03-06T14:39:49.841Z,40.55
2023-03-06T14:42:25.990Z,40.62
2023-03-06T14:45:17.768Z,40.90
2023-03-06T14:47:53.368Z,40.73
2023-03-06T14:50:28.855Z,41.22
2023-03-06T14:53:09.188Z,41.21
2023-03-06T14:55:38.132Z,41.09
2023-03-06T14:58:17.538Z,40.79
2023-03-06T15:00:50.802Z,40.70
2023-03-06T15:03:51.668Z,40.83
2023-03-06T15:06:25.525Z,40.94
2023-03-06T15:09:15.959Z,40.99
2023-03-06T15:12:02.870Z,41.21
2023-03-06T15:15:21.910Z,41.27
2023-03-06T15:17:50.977Z,41.44
2023-03-06T15:20:51.126Z,41.50
2023-03-06T15:23:34.531Z,41.20
2023-03-06T15:26:52.645Z,41.24
2023-03-06T15:29:24.634Z,41.76
2023-03-06T15:32:34.084Z,41.85
2023-03-06T15:35:24.804Z,42.42
2023-03-06T15:37:54.613Z,42.46
2023-03-06T15:40:33.334Z,42.41
2023-03-06T15:43:02.716Z,42.52
2023-03-06T15:45:32.608Z,43.77
2023-03-06T15:48:05.281Z,45.48
2023-03-06T15:50:33.038Z,44.76
2023-03-06T15:53:01.855Z,44.43
2023-03-06T15:55:29.802Z,45.61
2023-03-06T15:58:02.396Z,46.60
2023-03-06T16:00:36.933Z,46.09
2023-03-06T16:03:05.090Z,46.77
2023-03-06T16:05:34.009Z,47.38
2023-03-06T16:08:03.641Z,47.18
2023-03-06T16:10:38.008Z,46.62
2023-03-06T16:13:27.234Z,46.61
2023-03-06T16:15:56.198Z,46.87
2023-03-06T16:18:25.299Z,47.86
2023-03-06T16:20:53.388Z,47.70
2023-03-06T16:23:21.676Z,48.45
2023-03-06T16:25:50.278Z,48.22
2023-03-06T16:28:20.470Z,48.61
2023-03-06T16:30:48.875Z,48.59
2023-03-06T16:33:17.786Z,49.24
2023-03-06T16:35:47.276Z,51.24
2023-03-06T16:38:16.392Z,50.68
2023-03-06T16:40:45.615Z,50.07
2023-03-06T16:43:15.801Z,50.37
2023-03-06T16:45:44.789Z,50.56
2023-03-06T16:48:16.910Z,50.60
2023-03-06T16:50:46.412Z,50.35
2023-03-06T16:53:15.597Z,49.93
2023-03-06T16:55:43.403Z,49.64
2023-03-06T16:58:11.202Z,49.78
2023-03-06T17:00:39.633Z,49.76
2023-03-06T17:03:07.846Z,50.07
2023-03-06T17:05:38.094Z,49.82
2023-03-06T17:08:06.145Z,50.06
2023-03-06T17:10:34.587Z,49.96
2023-03-06T17:13:02.726Z,50.02
2023-03-06T17:15:30.950Z,50.83
2023-03-06T17:17:59.019Z,54.05
2023-03-06T17:20:28.311Z,51.28
2023-03-06T17:22:57.685Z,51.58
2023-03-06T17:25:25.670Z,52.62
2023-03-06T17:27:53.899Z,53.09
2023-03-06T17:30:21.779Z,53.42
2023-03-06T17:32:49.720Z,53.67
2023-03-06T17:35:19.824Z,53.81
2023-03-06T17:37:48.791Z,53.80
2023-03-06T17:40:18.796Z,53.94
2023-03-06T17:42:46.539Z,54.23
2023-03-06T17:45:14.374Z,54.11
2023-03-06T17:47:42.679Z,53.83
2023-03-06T17:50:11.488Z,54.60
2023-03-06T17:52:39.552Z,54.79
2023-03-06T17:55:08.656Z,54.97
2023-03-06T17:57:36.344Z,55.12
2023-03-06T18:00:06.381Z,54.96
2023-03-06T18:02:35.787Z,55.53
2023-03-06T18:05:04.365Z,55.53
2023-03-06T18:07:32.149Z,55.81
2023-03-06T18:09:59.960Z,55.84
2023-03-06T18:12:29.536Z,54.90
2023-03-06T18:14:57.637Z,54.33
2023-03-06T18:17:26.659Z,54.69
2023-03-06T18:19:56.932Z,54.99
2023-03-06T18:22:24.930Z,55.35
2023-03-06T18:24:53.071Z,55.16
2023-03-06T18:27:21.869Z,56.86
2023-03-06T18:29:52.558Z,57.58
2023-03-06T18:32:21.233Z,57.29
2023-03-06T18:34:50.946Z,56.94
2023-03-06T18:37:20.932Z,57.47
2023-03-06T18:39:51.776Z,57.69
2023-03-06T18:42:19.659Z,58.26
2023-03-06T18:44:48.215Z,56.84
2023-03-06T18:47:16.116Z,57.41
2023-03-06T18:49:46.738Z,58.10
2023-03-06T18:52:14.789Z,58.14
2023-03-06T18:54:43.101Z,58.33
2023-03-06T18:57:11.646Z,58.85
2023-03-06T18:59:39.456Z,58.91
2023-03-06T19:02:07.538Z,59.71
2023-03-06T19:04:38.353Z,60.05
2023-03-06T19:07:06.881Z,59.93
2023-03-06T19:09:35.010Z,60.10
2023-03-06T19:12:03.754Z,60.41
2023-03-06T19:14:31.537Z,60.20
2023-03-06T19:16:59.563Z,60.23
2023-03-06T19:19:29.448Z,60.51
2023-03-06T19:22:01.208Z,60.57
2023-03-06T19:24:29.827Z,60.54
2023-03-06T19:27:00.019Z,60.60
2023-03-06T19:29:28.818Z,60.72
2023-03-06T19:31:58.896Z,60.89
2023-03-06T19:34:27.103Z,61.04
2023-03-06T19:36:54.901Z,61.24
2023-03-06T19:39:22.736Z,61.35
2023-03-06T19:41:50.917Z,61.42
2023-03-06T19:44:19.065Z,61.40
2023-03-06T19:46:47.132Z,61.60
2023-03-06T19:49:18.106Z,61.52
2023-03-06T19:51:46.003Z,61.30
2023-03-06T19:54:26.441Z,61.33
2023-03-06T19:56:54.566Z,61.50
2023-03-06T19:59:22.259Z,61.82
2023-03-06T20:01:50.100Z,61.94
2023-03-06T20:04:17.875Z,62.16
2023-03-06T20:06:49.380Z,66.73
2023-03-06T20:09:20.622Z,77.52
2023-03-06T20:11:48.368Z,74.30
2023-03-06T20:14:18.813Z,62.43
2023-03-06T20:16:46.701Z,50.82
2023-03-06T20:19:14.683Z,47.08
2023-03-06T20:21:42.777Z,46.93
2023-03-06T20:24:16.835Z,48.19
2023-03-06T20:26:47.652Z,50.01
2023-03-06T20:29:16.305Z,50.05
2023-03-06T20:31:44.397Z,50.46
2023-03-06T20:34:14.093Z,51.72
2023-03-06T20:36:41.986Z,51.25
2023-03-06T20:39:15.482Z,52.07
2023-03-06T20:41:46.823Z,52.61
2023-03-06T20:44:20.080Z,53.20
2023-03-06T20:46:48.380Z,54.14
2023-03-06T20:49:16.273Z,54.38
2023-03-06T20:51:44.895Z,54.46
2023-03-06T20:54:16.819Z,54.39
2023-03-06T20:56:48.672Z,55.23
2023-03-06T20:59:18.156Z,55.98
2023-03-06T21:01:47.931Z,56.44
2023-03-06T21:04:16.542Z,58.75
2023-03-06T21:06:46.960Z,70.09
2023-03-06T21:09:19.539Z,67.32
2023-03-06T21:11:49.252Z,57.58
2023-03-06T21:14:17.002Z,56.91
2023-03-06T21:16:48.020Z,52.86
2023-03-06T21:19:20.221Z,49.28
2023-03-06T21:21:48.381Z,45.90
2023-03-06T21:24:16.103Z,43.47
2023-03-06T21:26:44.901Z,41.07
2023-03-06T21:29:13.890Z,40.50
2023-03-06T21:31:45.461Z,43.18
2023-03-06T21:34:13.211Z,41.73
2023-03-06T21:36:41.812Z,40.83
2023-03-06T21:39:11.748Z,38.91
2023-03-06T21:41:41.010Z,35.18
2023-03-06T21:44:08.821Z,35.02
2023-03-06T21:46:36.649Z,37.29
2023-03-06T21:49:06.756Z,39.44
2023-03-06T21:51:35.297Z,40.84
2023-03-06T21:54:06.434Z,41.91
2023-03-06T21:56:34.157Z,43.56
2023-03-06T21:59:01.989Z,44.41
2023-03-06T22:01:30.958Z,43.70
2023-03-06T22:04:00.517Z,45.61
2023-03-06T22:06:30.796Z,46.51
2023-03-06T22:09:01.184Z,48.39
2023-03-06T22:11:31.575Z,49.28
2023-03-06T22:14:00.286Z,49.91
2023-03-06T22:16:28.634Z,50.52
2023-03-06T22:18:57.846Z,51.11
2023-03-06T22:21:29.319Z,61.83
2023-03-06T22:23:59.189Z,63.37
2023-03-06T22:26:29.601Z,56.05
2023-03-06T22:28:57.510Z,50.62
2023-03-06T22:31:29.001Z,47.16
2023-03-06T22:34:00.451Z,44.42
2023-03-06T22:36:30.843Z,43.74
2023-03-06T22:39:04.610Z,42.84
2023-03-06T22:41:32.696Z,42.37
2023-03-06T22:44:02.540Z,42.12
2023-03-06T22:46:33.692Z,41.26
2023-03-06T22:49:02.716Z,40.17
2023-03-06T22:51:32.451Z,39.49
2023-03-06T22:54:02.038Z,38.90
2023-03-06T22:56:30.424Z,39.54
2023-03-06T22:58:59.003Z,38.96
2023-03-06T23:01:32.281Z,40.56
2023-03-06T23:04:03.643Z,41.00
2023-03-06T23:06:36.067Z,39.84
2023-03-06T23:09:21.534Z,38.95
2023-03-06T23:11:51.808Z,38.09
2023-03-06T23:14:20.254Z,37.63
2023-03-06T23:16:48.326Z,38.50
2023-03-06T23:19:17.424Z,37.30
2023-03-06T23:21:47.620Z,36.81
2023-03-06T23:24:17.002Z,36.88
2023-03-06T23:26:44.887Z,36.33
2023-03-06T23:29:13.245Z,35.88
2023-03-06T23:31:41.235Z,35.63
2023-03-06T23:34:11.777Z,36.17
2023-03-06T23:36:39.508Z,36.38
2023-03-06T23:39:07.300Z,36.12
2023-03-06T23:41:35.174Z,35.60
2023-03-06T23:44:03.986Z,35.51
2023-03-06T23:46:32.233Z,35.26
2023-03-06T23:49:00.246Z,35.20
2023-03-06T23:51:28.284Z,35.23
2023-03-06T23:53:59.767Z,35.12
2023-03-06T23:56:29.033Z,35.44
2023-03-06T23:58:57.645Z,35.58
